Time;durP1;ratioP1;P1;durP2;ratioP2;P2;SDS_P1;SDS_P2;PMS_P1;PMS_P2;Temp;Humidity;BMP_temperature;BMP_pressure;BME280_temperature;BME280_humidity;BME280_pressure;Samples;Min_cycle;Max_cycle;Signal;HPM_P1;HPM_P2
2021/12/28 00:01:25;;;;;;;18.13;14.60;;;;;;;;;;5075380;28;20614;-71
2021/12/28 00:03:53;;;;;;;23.35;14.80;;;;;;;;;;5075273;28;20201;-70
2021/12/28 00:06:21;;;;;;;20.55;16.15;;;;;;;;;;5075268;28;20296;-71
2021/12/28 00:08:49;;;;;;;25.13;14.65;;;;;;;;;;5075584;28;20279;-71
2021/12/28 00:11:17;;;;;;;22.05;14.07;;;;;;;;;;5075600;28;20193;-70
2021/12/28 00:13:45;;;;;;;18.13;14.05;;;;;;;;;;5074751;28;20191;-70
2021/12/28 00:18:56;;;;;;;21.52;14.20;;;;;;;;;;5074772;28;20205;-70
2021/12/28 00:21:23;;;;;;;18.60;14.00;;;;;;;;;;5073585;28;20730;-70
2021/12/28 00:23:52;;;;;;;18.80;14.07;;;;;;;;;;5074623;28;20212;-70
2021/12/28 00:26:20;;;;;;;17.88;13.52;;;;;;;;;;5074627;28;20207;-70
2021/12/28 00:28:48;;;;;;;18.75;12.73;;;;;;;;;;5074889;28;20205;-70
2021/12/28 00:31:16;;;;;;;17.80;13.55;;;;;;;;;;5074768;28;20194;-70
2021/12/28 00:33:44;;;;;;;17.92;13.65;;;;;;;;;;5074431;28;20204;-70
2021/12/28 00:36:12;;;;;;;19.45;13.95;;;;;;;;;;5074882;28;20308;-70
2021/12/28 00:38:39;;;;;;;17.55;13.70;;;;;;;;;;5074615;28;20288;-70
2021/12/28 00:41:08;;;;;;;15.98;12.75;;;;;;;;;;5074440;28;20318;-70
2021/12/28 00:43:36;;;;;;;16.60;13.00;;;;;;;;;;5074670;28;20279;-70
2021/12/28 00:46:03;;;;;;;16.23;11.90;;;;;;;;;;5074515;28;20259;-70
2021/12/28 00:48:31;;;;;;;18.40;14.20;;;;;;;;;;5074109;28;20236;-70
2021/12/28 00:50:58;;;;;;;16.52;12.50;;;;;;;;;;5074395;28;20279;-69
2021/12/28 00:53:25;;;;;;;19.00;12.82;;;;;;;;;;5074849;28;20642;-70
2021/12/28 00:55:52;;;;;;;19.63;12.05;;;;;;;;;;5073956;28;20291;-69
2021/12/28 00:58:21;;;;;;;13.80;11.27;;;;;;;;;;5074143;28;20225;-70
2021/12/28 01:00:49;;;;;;;14.98;10.95;;;;;;;;;;5073938;28;20225;-70
2021/12/28 01:03:17;;;;;;;14.48;11.15;;;;;;;;;;5074198;28;20299;-70
2021/12/28 01:05:45;;;;;;;14.65;11.73;;;;;;;;;;5074264;28;20737;-70
2021/12/28 01:08:12;;;;;;;16.85;11.80;;;;;;;;;;5074042;28;20285;-69
2021/12/28 01:10:42;;;;;;;13.82;9.60;;;;;;;;;;5074010;28;20197;-69
2021/12/28 01:13:09;;;;;;;17.42;10.80;;;;;;;;;;5073556;28;20288;-69
2021/12/28 01:15:38;;;;;;;10.88;9.38;;;;;;;;;;5073812;28;20315;-70
2021/12/28 01:18:05;;;;;;;12.82;10.90;;;;;;;;;;5073727;28;20717;-71
2021/12/28 01:20:33;;;;;;;11.55;10.18;;;;;;;;;;5074035;28;20261;-70
2021/12/28 01:23:00;;;;;;;11.55;9.00;;;;;;;;;;5073883;28;20317;-70
2021/12/28 01:25:27;;;;;;;13.77;10.25;;;;;;;;;;5073800;28;20299;-70
2021/12/28 01:27:55;;;;;;;12.10;9.13;;;;;;;;;;5073790;28;20291;-70
2021/12/28 01:30:23;;;;;;;12.88;10.10;;;;;;;;;;5073375;28;20292;-70
2021/12/28 01:32:52;;;;;;;11.60;10.40;;;;;;;;;;5073136;28;20205;-70
2021/12/28 01:35:20;;;;;;;13.20;9.68;;;;;;;;;;5073673;28;20195;-70
2021/12/28 01:37:48;;;;;;;14.65;11.00;;;;;;;;;;5073297;28;20311;-70
2021/12/28 01:40:17;;;;;;;12.02;9.38;;;;;;;;;;5073707;28;20283;-70
2021/12/28 01:42:57;;;;;;;12.40;9.10;;;;;;;;;;5073598;28;20203;-70
2021/12/28 01:45:31;;;;;;;13.40;9.75;;;;;;;;;;5073980;28;20279;-70
2021/12/28 01:48:00;;;;;;;13.88;11.32;;;;;;;;;;5073568;28;20207;-70
2021/12/28 01:50:28;;;;;;;13.77;10.65;;;;;;;;;;5073534;28;20232;-70
2021/12/28 01:52:55;;;;;;;11.20;9.45;;;;;;;;;;5074018;28;20706;-71
2021/12/28 01:55:22;;;;;;;10.43;9.32;;;;;;;;;;5073606;28;20284;-70
2021/12/28 01:57:50;;;;;;;12.70;9.95;;;;;;;;;;5073067;28;20222;-70
2021/12/28 02:00:17;;;;;;;14.55;10.18;;;;;;;;;;5073455;28;20622;-70
2021/12/28 02:02:45;;;;;;;11.85;9.68;;;;;;;;;;5073412;28;20300;-70
2021/12/28 02:05:13;;;;;;;12.23;9.55;;;;;;;;;;5073390;28;20197;-70
2021/12/28 02:07:41;;;;;;;17.13;11.00;;;;;;;;;;5073367;28;20307;-70
2021/12/28 02:10:08;;;;;;;14.93;10.38;;;;;;;;;;5073043;28;20743;-70
2021/12/28 02:12:36;;;;;;;11.77;9.80;;;;;;;;;;5073315;28;20232;-70
2021/12/28 02:15:06;;;;;;;11.35;9.80;;;;;;;;;;5073530;28;20200;-70
2021/12/28 02:17:34;;;;;;;13.52;8.65;;;;;;;;;;5073444;28;20260;-70
2021/12/28 02:20:06;;;;;;;14.23;10.70;;;;;;;;;;5073422;28;20201;-70
2021/12/28 02:22:33;;;;;;;14.20;10.90;;;;;;;;;;5073510;28;20275;-70
2021/12/28 02:25:00;;;;;;;12.35;11.05;;;;;;;;;;5073695;28;20288;-70
2021/12/28 02:27:29;;;;;;;11.70;10.30;;;;;;;;;;5073552;28;20208;-70
2021/12/28 02:29:56;;;;;;;12.43;9.15;;;;;;;;;;5073149;28;20198;-70
2021/12/28 02:32:25;;;;;;;9.43;8.10;;;;;;;;;;5072841;28;20290;-70
2021/12/28 02:34:52;;;;;;;9.80;8.80;;;;;;;;;;5072827;28;20292;-70
2021/12/28 02:37:21;;;;;;;11.38;8.55;;;;;;;;;;5072665;28;20253;-70
2021/12/28 02:39:48;;;;;;;13.80;8.40;;;;;;;;;;5072740;28;20746;-70
2021/12/28 02:42:17;;;;;;;13.88;9.00;;;;;;;;;;5073090;28;20614;-70
2021/12/28 02:44:44;;;;;;;10.68;7.85;;;;;;;;;;5073861;28;20202;-70
2021/12/28 02:47:12;;;;;;;10.82;8.90;;;;;;;;;;5076496;28;20658;-71
2021/12/28 02:49:39;;;;;;;13.95;9.20;;;;;;;;;;5076776;28;20239;-70
2021/12/28 02:52:09;;;;;;;9.27;7.35;;;;;;;;;;5077153;28;20260;-69
2021/12/28 02:54:39;;;;;;;11.13;7.90;;;;;;;;;;5076793;28;20203;-70
2021/12/28 02:57:06;;;;;;;12.15;7.80;;;;;;;;;;5076258;28;20226;-70
2021/12/28 02:59:34;;;;;;;9.98;8.95;;;;;;;;;;5076592;28;20204;-70
2021/12/28 03:02:01;;;;;;;9.20;8.10;;;;;;;;;;5077028;28;20283;-70
2021/12/28 03:04:28;;;;;;;7.93;7.22;;;;;;;;;;5076514;28;20285;-70
2021/12/28 03:06:56;;;;;;;9.40;8.50;;;;;;;;;;5076134;28;20287;-70
2021/12/28 03:09:23;;;;;;;12.90;8.00;;;;;;;;;;5076090;28;20300;-70
2021/12/28 03:11:52;;;;;;;8.85;7.53;;;;;;;;;;5076945;28;20203;-70
2021/12/28 03:14:19;;;;;;;10.07;7.70;;;;;;;;;;5076301;28;20286;-71
2021/12/28 03:16:46;;;;;;;11.07;8.00;;;;;;;;;;5076293;28;20318;-70
2021/12/28 03:19:14;;;;;;;9.75;7.70;;;;;;;;;;5076359;28;20226;-70
2021/12/28 03:21:41;;;;;;;10.45;7.60;;;;;;;;;;5076173;28;20286;-70
2021/12/28 03:24:10;;;;;;;8.80;7.90;;;;;;;;;;5076173;28;20196;-70
2021/12/28 03:26:38;;;;;;;9.15;7.53;;;;;;;;;;5076565;28;20279;-70
2021/12/28 03:29:07;;;;;;;13.07;7.90;;;;;;;;;;5076032;28;20559;-70
2021/12/28 03:31:34;;;;;;;13.55;9.27;;;;;;;;;;5076039;28;20288;-70
2021/12/28 03:34:01;;;;;;;11.13;7.72;;;;;;;;;;5076365;28;20391;-70
2021/12/28 03:36:30;;;;;;;10.15;7.55;;;;;;;;;;5076085;28;20192;-70
2021/12/28 03:38:58;;;;;;;13.02;7.57;;;;;;;;;;5075868;28;20302;-70
2021/12/28 03:41:27;;;;;;;7.75;7.00;;;;;;;;;;5076093;28;20192;-70
2021/12/28 03:43:55;;;;;;;7.38;6.68;;;;;;;;;;5075881;28;20282;-71
2021/12/28 03:46:24;;;;;;;7.30;6.32;;;;;;;;;;5075444;28;20287;-70
2021/12/28 03:48:52;;;;;;;7.35;6.60;;;;;;;;;;5075694;28;20301;-70
2021/12/28 03:51:19;;;;;;;9.13;6.60;;;;;;;;;;5075805;28;20286;-70
2021/12/28 03:53:47;;;;;;;9.88;7.13;;;;;;;;;;5075317;28;20288;-70
2021/12/28 03:56:14;;;;;;;9.15;7.72;;;;;;;;;;5075071;28;20290;-70
2021/12/28 03:58:43;;;;;;;9.60;7.00;;;;;;;;;;5075674;28;20311;-71
2021/12/28 04:01:12;;;;;;;18.05;7.88;;;;;;;;;;5075506;28;20300;-70
2021/12/28 04:03:41;;;;;;;8.70;7.75;;;;;;;;;;5075460;28;20249;-70
2021/12/28 04:06:09;;;;;;;8.13;7.32;;;;;;;;;;5075085;28;20289;-70
2021/12/28 04:08:37;;;;;;;14.75;6.72;;;;;;;;;;5075598;28;20321;-70
2021/12/28 04:11:15;;;;;;;10.27;8.82;;;;;;;;;;5075290;28;20255;-70
2021/12/28 04:13:42;;;;;;;11.02;7.75;;;;;;;;;;5075670;28;20246;-70
2021/12/28 04:16:10;;;;;;;14.75;8.20;;;;;;;;;;5074842;28;20323;-70
2021/12/28 04:18:37;;;;;;;10.95;7.30;;;;;;;;;;5075583;28;20311;-71
2021/12/28 04:21:06;;;;;;;11.38;8.13;;;;;;;;;;5074991;28;20692;-70
2021/12/28 04:23:33;;;;;;;9.40;6.57;;;;;;;;;;5075022;28;20284;-71
2021/12/28 04:26:01;;;;;;;9.93;7.55;;;;;;;;;;5074676;28;20231;-70
2021/12/28 04:28:28;;;;;;;9.70;6.68;;;;;;;;;;5074591;28;20288;-71
2021/12/28 04:30:55;;;;;;;11.50;7.50;;;;;;;;;;5074912;28;20526;-71
2021/12/28 04:33:22;;;;;;;17.73;7.28;;;;;;;;;;5074673;28;20757;-70
2021/12/28 04:35:50;;;;;;;8.70;6.65;;;;;;;;;;5074681;28;20228;-71
2021/12/28 04:38:19;;;;;;;14.07;8.10;;;;;;;;;;5074344;28;20309;-71
2021/12/28 04:40:46;;;;;;;9.80;7.40;;;;;;;;;;5074645;28;20288;-71
2021/12/28 04:43:15;;;;;;;11.13;6.70;;;;;;;;;;5074481;28;20236;-70
2021/12/28 04:45:42;;;;;;;16.98;7.63;;;;;;;;;;5074266;28;20667;-70
2021/12/28 04:48:10;;;;;;;10.77;6.90;;;;;;;;;;5074230;28;20291;-70
2021/12/28 04:50:40;;;;;;;10.48;8.05;;;;;;;;;;5074452;28;20288;-71
2021/12/28 04:53:09;;;;;;;10.05;7.45;;;;;;;;;;5074466;28;20188;-70
2021/12/28 04:55:39;;;;;;;7.85;7.00;;;;;;;;;;5074034;28;20678;-70
2021/12/28 04:58:06;;;;;;;11.30;6.65;;;;;;;;;;5074417;28;20314;-71
2021/12/28 05:00:33;;;;;;;15.63;7.20;;;;;;;;;;5074534;28;20299;-71
2021/12/28 05:03:01;;;;;;;7.90;7.00;;;;;;;;;;5074280;28;20261;-70
2021/12/28 05:05:28;;;;;;;11.85;6.75;;;;;;;;;;5092170;28;20222;-70
2021/12/28 05:07:55;;;;;;;10.93;6.88;;;;;;;;;;5094322;28;20299;-70
2021/12/28 05:10:22;;;;;;;10.38;6.22;;;;;;;;;;5093960;28;20671;-71
2021/12/28 05:12:51;;;;;;;22.27;7.40;;;;;;;;;;5093979;28;20282;-70
2021/12/28 05:15:19;;;;;;;9.60;7.20;;;;;;;;;;5094639;28;20331;-72
2021/12/28 05:17:46;;;;;;;9.10;6.88;;;;;;;;;;5094571;28;20318;-71
2021/12/28 05:20:14;;;;;;;13.40;7.13;;;;;;;;;;5094149;28;20234;-70
2021/12/28 05:22:41;;;;;;;19.42;7.63;;;;;;;;;;5093841;28;20619;-72
2021/12/28 05:25:09;;;;;;;11.77;7.82;;;;;;;;;;5094192;28;20635;-72
2021/12/28 05:27:36;;;;;;;21.85;7.50;;;;;;;;;;5094037;28;20294;-72
2021/12/28 05:30:06;;;;;;;14.20;6.90;;;;;;;;;;5093999;28;20282;-72
2021/12/28 05:32:34;;;;;;;15.10;7.72;;;;;;;;;;5093607;28;20677;-72
2021/12/28 05:35:01;;;;;;;19.83;7.47;;;;;;;;;;5093788;28;20283;-72
2021/12/28 05:37:28;;;;;;;13.25;6.88;;;;;;;;;;5094110;28;20240;-72
2021/12/28 05:39:55;;;;;;;19.60;8.45;;;;;;;;;;5093825;28;20377;-72
2021/12/28 05:42:23;;;;;;;19.15;7.50;;;;;;;;;;5094069;28;20204;-72
2021/12/28 05:44:50;;;;;;;14.82;6.53;;;;;;;;;;5093930;28;20227;-71
2021/12/28 05:47:19;;;;;;;10.43;6.22;;;;;;;;;;5093748;28;20195;-71
2021/12/28 05:49:47;;;;;;;15.98;6.60;;;;;;;;;;5094262;28;20291;-71
2021/12/28 05:52:14;;;;;;;15.45;7.20;;;;;;;;;;5093677;28;20234;-71
2021/12/28 05:54:41;;;;;;;20.48;6.00;;;;;;;;;;5093646;28;20277;-71
2021/12/28 05:57:09;;;;;;;20.48;6.72;;;;;;;;;;5093243;28;20200;-71
2021/12/28 05:59:36;;;;;;;15.88;6.65;;;;;;;;;;5094002;28;20288;-71
2021/12/28 06:02:03;;;;;;;13.73;6.40;;;;;;;;;;5093853;28;20278;-71
2021/12/28 06:04:32;;;;;;;19.92;6.30;;;;;;;;;;5093166;28;20234;-72
2021/12/28 06:06:59;;;;;;;24.48;7.30;;;;;;;;;;5093289;28;20281;-72
2021/12/28 06:09:27;;;;;;;19.05;6.75;;;;;;;;;;5093683;28;20240;-71
2021/12/28 06:11:54;;;;;;;17.50;6.30;;;;;;;;;;5093351;28;20230;-72
2021/12/28 06:14:22;;;;;;;18.08;6.47;;;;;;;;;;5093821;28;20226;-72
2021/12/28 06:16:49;;;;;;;18.58;6.72;;;;;;;;;;5093613;28;20716;-72
2021/12/28 06:19:16;;;;;;;19.70;6.90;;;;;;;;;;5096682;28;20652;-72
2021/12/28 06:21:45;;;;;;;9.25;6.28;;;;;;;;;;5097766;28;20286;-72
2021/12/28 06:24:12;;;;;;;15.52;7.00;;;;;;;;;;5097420;28;20235;-72
2021/12/28 06:26:39;;;;;;;16.98;6.55;;;;;;;;;;5097579;28;20238;-72
2021/12/28 06:29:08;;;;;;;26.27;6.93;;;;;;;;;;5097124;28;20236;-72
2021/12/28 06:31:35;;;;;;;13.20;5.47;;;;;;;;;;5097061;28;20290;-72
2021/12/28 06:34:04;;;;;;;28.05;6.85;;;;;;;;;;5097074;28;20207;-71
2021/12/28 06:36:32;;;;;;;17.70;6.93;;;;;;;;;;5096821;28;20286;-71
2021/12/28 06:39:00;;;;;;;12.30;5.97;;;;;;;;;;5096933;28;20679;-71
2021/12/28 06:41:28;;;;;;;22.75;6.22;;;;;;;;;;5097223;28;20230;-71
2021/12/28 06:43:55;;;;;;;20.55;7.30;;;;;;;;;;5097486;28;20296;-71
2021/12/28 06:46:22;;;;;;;25.88;6.30;;;;;;;;;;5097675;28;20721;-72
2021/12/28 06:48:57;;;;;;;14.70;6.07;;;;;;;;;;5098156;28;20235;-72
2021/12/28 06:51:25;;;;;;;14.80;5.57;;;;;;;;;;5096949;28;20201;-71
2021/12/28 06:53:52;;;;;;;18.05;6.53;;;;;;;;;;5097288;28;20228;-72
2021/12/28 06:56:21;;;;;;;23.42;8.43;;;;;;;;;;5096504;28;20246;-71
2021/12/28 06:58:48;;;;;;;19.83;6.68;;;;;;;;;;5096863;28;20311;-71
2021/12/28 07:01:16;;;;;;;18.08;6.28;;;;;;;;;;5096634;28;20282;-71
2021/12/28 07:03:44;;;;;;;14.38;6.15;;;;;;;;;;5096843;28;20228;-71
2021/12/28 07:06:13;;;;;;;23.20;6.72;;;;;;;;;;5096792;28;20618;-71
2021/12/28 07:08:40;;;;;;;16.20;5.60;;;;;;;;;;5097064;28;20732;-70
2021/12/28 07:11:08;;;;;;;20.75;6.80;;;;;;;;;;5096973;28;20223;-71
2021/12/28 07:13:36;;;;;;;22.95;6.22;;;;;;;;;;5097346;28;20559;-71
2021/12/28 07:16:04;;;;;;;21.98;5.97;;;;;;;;;;5096906;28;20317;-71
2021/12/28 07:18:31;;;;;;;21.58;5.57;;;;;;;;;;5097650;28;20244;-71
2021/12/28 07:21:00;;;;;;;26.48;6.53;;;;;;;;;;5096467;28;20291;-71
2021/12/28 07:23:27;;;;;;;14.82;5.45;;;;;;;;;;5096300;28;20193;-72
2021/12/28 07:25:54;;;;;;;24.55;5.55;;;;;;;;;;5095986;28;20712;-71
2021/12/28 07:28:22;;;;;;;15.73;5.65;;;;;;;;;;5096824;28;20207;-71
2021/12/28 07:30:51;;;;;;;22.83;6.75;;;;;;;;;;5095373;28;20191;-71
2021/12/28 07:33:19;;;;;;;18.17;6.38;;;;;;;;;;5096695;28;20231;-71
2021/12/28 07:35:46;;;;;;;19.80;5.28;;;;;;;;;;5095944;28;20283;-71
2021/12/28 07:38:13;;;;;;;13.05;6.03;;;;;;;;;;5095742;28;20282;-71
2021/12/28 07:40:40;;;;;;;22.23;6.90;;;;;;;;;;5096067;28;20235;-71
2021/12/28 07:43:08;;;;;;;18.58;6.65;;;;;;;;;;5095741;28;20234;-71
2021/12/28 07:45:35;;;;;;;17.42;6.43;;;;;;;;;;5096029;28;20241;-71
2021/12/28 07:48:04;;;;;;;30.80;7.53;;;;;;;;;;5095887;28;20291;-71
2021/12/28 07:50:31;;;;;;;12.13;6.20;;;;;;;;;;5095864;28;20229;-72
2021/12/28 07:52:58;;;;;;;13.23;5.68;;;;;;;;;;5096136;28;20283;-71
2021/12/28 07:55:26;;;;;;;21.02;9.10;;;;;;;;;;5095397;28;20240;-71
2021/12/28 07:57:53;;;;;;;18.10;8.75;;;;;;;;;;5095486;28;20236;-72
2021/12/28 08:00:22;;;;;;;23.90;8.13;;;;;;;;;;5096227;28;20310;-72
2021/12/28 08:02:50;;;;;;;16.50;7.05;;;;;;;;;;5095588;28;20195;-71
2021/12/28 08:05:18;;;;;;;18.73;7.60;;;;;;;;;;5096345;28;20543;-71
2021/12/28 08:07:46;;;;;;;25.55;7.50;;;;;;;;;;5096401;28;20189;-71
2021/12/28 08:10:14;;;;;;;22.55;8.60;;;;;;;;;;5095558;28;20211;-71
2021/12/28 08:12:41;;;;;;;20.50;7.32;;;;;;;;;;5095449;28;20291;-70
2021/12/28 08:15:09;;;;;;;34.20;10.40;;;;;;;;;;5095085;28;20319;-70
2021/12/28 08:17:36;;;;;;;21.38;8.65;;;;;;;;;;5095644;28;20316;-71
2021/12/28 08:20:04;;;;;;;23.17;9.73;;;;;;;;;;5094832;28;20699;-70
2021/12/28 08:22:33;;;;;;;25.38;9.13;;;;;;;;;;5095162;28;20290;-70
2021/12/28 08:25:00;;;;;;;22.27;8.50;;;;;;;;;;5095103;28;20195;-71
2021/12/28 08:27:28;;;;;;;26.58;14.27;;;;;;;;;;5095173;28;20192;-71
2021/12/28 08:29:55;;;;;;;28.42;11.73;;;;;;;;;;5095093;28;20292;-71
2021/12/28 08:32:23;;;;;;;21.42;9.80;;;;;;;;;;5095022;28;20199;-71
2021/12/28 08:34:50;;;;;;;26.10;10.18;;;;;;;;;;5095096;28;20280;-71
2021/12/28 08:37:17;;;;;;;18.90;9.55;;;;;;;;;;5094686;28;20726;-69
2021/12/28 08:39:46;;;;;;;31.67;10.40;;;;;;;;;;5094824;28;20316;-69
2021/12/28 08:42:13;;;;;;;26.00;10.73;;;;;;;;;;5093564;28;20284;-69
2021/12/28 08:44:40;;;;;;;22.48;10.27;;;;;;;;;;5093701;28;20230;-69
2021/12/28 08:47:08;;;;;;;31.83;11.00;;;;;;;;;;5094690;28;20208;-69
2021/12/28 08:49:35;;;;;;;21.67;11.80;;;;;;;;;;5094725;28;20288;-69
2021/12/28 08:52:03;;;;;;;16.95;9.43;;;;;;;;;;5094321;28;20254;-69
2021/12/28 08:54:30;;;;;;;25.73;10.15;;;;;;;;;;5094565;28;20284;-70
2021/12/28 08:56:58;;;;;;;17.33;9.23;;;;;;;;;;5094978;28;20236;-69
2021/12/28 08:59:26;;;;;;;18.27;10.10;;;;;;;;;;5094218;28;20303;-69
2021/12/28 09:01:55;;;;;;;21.27;8.25;;;;;;;;;;5094322;28;20288;-69
2021/12/28 09:04:22;;;;;;;26.33;9.60;;;;;;;;;;5094292;28;20233;-69
2021/12/28 09:06:49;;;;;;;13.02;8.13;;;;;;;;;;5094415;28;20288;-69
2021/12/28 09:09:17;;;;;;;17.35;8.20;;;;;;;;;;5094324;28;20296;-69
2021/12/28 09:11:44;;;;;;;14.27;8.25;;;;;;;;;;5094442;28;20265;-69
2021/12/28 09:14:13;;;;;;;22.70;8.57;;;;;;;;;;5094175;28;20574;-69
2021/12/28 09:16:40;;;;;;;20.13;8.25;;;;;;;;;;5094142;28;20310;-69
2021/12/28 09:19:07;;;;;;;18.40;7.68;;;;;;;;;;5094136;28;20253;-69
2021/12/28 09:21:35;;;;;;;17.75;8.35;;;;;;;;;;5093761;28;20207;-69
2021/12/28 09:24:02;;;;;;;21.88;8.25;;;;;;;;;;5093725;28;20288;-69
2021/12/28 09:26:29;;;;;;;14.73;7.45;;;;;;;;;;5094048;28;20236;-70
2021/12/28 09:28:57;;;;;;;12.02;7.28;;;;;;;;;;5094136;28;20275;-69
2021/12/28 09:31:25;;;;;;;10.50;7.00;;;;;;;;;;5094387;28;20240;-69
2021/12/28 09:33:53;;;;;;;14.18;6.40;;;;;;;;;;5093792;28;20197;-69
2021/12/28 09:36:20;;;;;;;12.68;6.75;;;;;;;;;;5094154;28;20281;-69
2021/12/28 09:38:48;;;;;;;18.05;6.13;;;;;;;;;;5093732;28;20199;-70
2021/12/28 09:41:16;;;;;;;13.73;5.78;;;;;;;;;;5094061;28;20280;-70
2021/12/28 09:43:43;;;;;;;9.52;5.78;;;;;;;;;;5093563;28;20277;-70
2021/12/28 09:46:11;;;;;;;12.98;5.88;;;;;;;;;;5093859;28;20193;-70
2021/12/28 09:48:40;;;;;;;11.13;5.90;;;;;;;;;;5094210;28;20189;-70
2021/12/28 09:51:07;;;;;;;19.05;6.75;;;;;;;;;;5093245;28;20287;-70
2021/12/28 09:53:35;;;;;;;14.82;6.82;;;;;;;;;;5093365;28;20201;-69
2021/12/28 09:56:02;;;;;;;26.45;8.63;;;;;;;;;;5093309;28;20284;-70
2021/12/28 09:58:30;;;;;;;12.57;5.93;;;;;;;;;;5093316;28;20239;-69
2021/12/28 10:00:57;;;;;;;10.13;6.72;;;;;;;;;;5093442;28;20311;-70
2021/12/28 10:03:24;;;;;;;15.37;6.17;;;;;;;;;;5093075;28;20203;-70
2021/12/28 10:05:53;;;;;;;13.13;6.95;;;;;;;;;;5093180;28;20526;-70
2021/12/28 10:08:24;;;;;;;12.43;5.82;;;;;;;;;;5093148;28;20205;-69
2021/12/28 10:10:53;;;;;;;14.63;5.50;;;;;;;;;;5093897;28;20189;-70
2021/12/28 10:13:21;;;;;;;10.13;5.50;;;;;;;;;;5093440;28;21507;-70
2021/12/28 10:15:50;;;;;;;10.30;6.30;;;;;;;;;;5093238;28;20284;-70
2021/12/28 10:18:18;;;;;;;17.35;6.05;;;;;;;;;;5093103;28;20515;-71
2021/12/28 10:20:46;;;;;;;10.07;4.90;;;;;;;;;;5092931;28;20267;-70
2021/12/28 10:23:15;;;;;;;11.25;5.75;;;;;;;;;;5093552;28;20523;-70
2021/12/28 10:25:43;;;;;;;9.45;5.95;;;;;;;;;;5093684;28;20236;-70
2021/12/28 10:28:11;;;;;;;7.43;5.30;;;;;;;;;;5094162;28;20250;-69
2021/12/28 10:30:40;;;;;;;5.40;4.50;;;;;;;;;;5093347;28;20508;-70
2021/12/28 10:33:08;;;;;;;6.17;4.70;;;;;;;;;;5093432;28;20530;-70
2021/12/28 10:35:36;;;;;;;5.50;4.37;;;;;;;;;;5092865;28;20477;-70
2021/12/28 10:38:05;;;;;;;12.03;6.97;;;;;;;;;;5093721;28;20431;-70
2021/12/28 10:40:35;;;;;;;9.57;5.90;;;;;;;;;;5092904;28;20514;-70
2021/12/28 10:43:04;;;;;;;6.57;5.03;;;;;;;;;;5093254;28;20435;-70
2021/12/28 10:45:36;;;;;;;10.60;5.27;;;;;;;;;;5093294;28;20534;-70
2021/12/28 10:48:06;;;;;;;8.30;3.90;;;;;;;;;;5092972;28;20436;-70
2021/12/28 10:50:36;;;;;;;10.18;4.25;;;;;;;;;;5093340;28;20446;-70
2021/12/28 10:53:13;;;;;;;3.57;3.23;;;;;;;;;;5093300;28;20186;-70
2021/12/28 10:55:43;;;;;;;7.30;4.20;;;;;;;;;;5093416;28;20882;-70
2021/12/28 10:58:11;;;;;;;6.78;4.95;;;;;;;;;;5093743;28;20524;-70
2021/12/28 11:00:41;;;;;;;13.53;9.20;;;;;;;;;;5093641;28;20216;-70
2021/12/28 11:03:23;;;;;;;9.00;7.80;;;;;;;;;;5093026;28;20825;-70
2021/12/28 11:05:52;;;;;;;10.17;6.87;;;;;;;;;;5094477;28;20423;-70
2021/12/28 11:08:20;;;;;;;5.63;4.67;;;;;;;;;;5096355;28;20470;-70
2021/12/28 11:10:49;;;;;;;5.33;4.50;;;;;;;;;;5096672;28;20463;-70
2021/12/28 11:13:19;;;;;;;7.63;4.33;;;;;;;;;;5096455;28;20436;-70
2021/12/28 11:15:47;;;;;;;5.32;4.50;;;;;;;;;;5097181;28;20427;-70
2021/12/28 11:18:25;;;;;;;5.03;3.70;;;;;;;;;;5097132;28;20234;-70
2021/12/28 11:20:53;;;;;;;5.13;3.87;;;;;;;;;;5096207;28;20241;-70
2021/12/28 11:23:21;;;;;;;4.73;3.30;;;;;;;;;;5097295;28;20541;-71
2021/12/28 11:26:01;;;;;;;6.77;3.97;;;;;;;;;;5096485;28;20488;-70
2021/12/28 11:28:29;;;;;;;5.83;4.40;;;;;;;;;;5096913;28;20463;-70
2021/12/28 11:31:04;;;;;;;4.40;4.10;;;;;;;;;;5095920;28;20444;-71
2021/12/28 11:33:46;;;;;;;3.60;3.30;;;;;;;;;;5096100;28;20912;-70
2021/12/28 11:36:13;;;;;;;6.73;3.23;;;;;;;;;;5079654;28;20504;-70
2021/12/28 11:38:41;;;;;;;6.93;3.80;;;;;;;;;;5095858;28;20603;-70
2021/12/28 11:41:09;;;;;;;3.70;3.40;;;;;;;;;;5096824;28;20227;-70
2021/12/28 11:43:37;;;;;;;4.73;3.63;;;;;;;;;;5096379;28;20998;-70
2021/12/28 11:46:05;;;;;;;3.40;3.10;;;;;;;;;;5095329;28;20531;-70
2021/12/28 11:48:33;;;;;;;8.07;4.73;;;;;;;;;;5095068;28;20482;-70
2021/12/28 11:51:00;;;;;;;5.60;3.60;;;;;;;;;;5095955;28;20490;-70
2021/12/28 11:53:28;;;;;;;4.80;3.23;;;;;;;;;;5095986;28;20444;-70
2021/12/28 11:55:56;;;;;;;3.50;3.20;;;;;;;;;;5095931;28;20546;-70
2021/12/28 11:58:38;;;;;;;4.17;3.40;;;;;;;;;;5095796;28;20444;-70
2021/12/28 12:01:07;;;;;;;3.43;3.13;;;;;;;;;;5096013;28;20575;-70
2021/12/28 12:03:39;;;;;;;5.43;3.30;;;;;;;;;;5095620;28;20435;-70
2021/12/28 12:06:06;;;;;;;4.00;3.10;;;;;;;;;;5095296;28;20439;-70
2021/12/28 12:08:35;;;;;;;11.13;7.75;;;;;;;;;;5095273;28;20444;-70
2021/12/28 12:11:03;;;;;;;5.40;4.10;;;;;;;;;;5095408;28;20197;-70
2021/12/28 12:13:30;;;;;;;3.70;3.37;;;;;;;;;;5095313;28;20530;-70
2021/12/28 12:16:00;;;;;;;4.80;3.57;;;;;;;;;;5095188;28;20499;-70
2021/12/28 12:18:30;;;;;;;4.23;3.40;;;;;;;;;;5095121;28;21034;-70
2021/12/28 12:20:59;;;;;;;4.20;3.30;;;;;;;;;;5095989;28;20502;-70
2021/12/28 12:23:27;;;;;;;3.30;3.10;;;;;;;;;;5095381;28;20475;-70
2021/12/28 12:26:10;;;;;;;6.10;4.30;;;;;;;;;;5095663;28;20527;-70
2021/12/28 12:28:46;;;;;;;3.33;3.03;;;;;;;;;;5095722;28;20423;-70
2021/12/28 12:31:21;;;;;;;5.77;3.90;;;;;;;;;;5094770;28;20941;-70
2021/12/28 12:33:50;;;;;;;3.80;3.50;;;;;;;;;;5094906;28;21017;-70
2021/12/28 12:36:31;;;;;;;4.40;3.83;;;;;;;;;;5094734;28;20489;-70
2021/12/28 12:38:58;;;;;;;3.17;2.90;;;;;;;;;;5095855;28;20503;-69
2021/12/28 12:41:37;;;;;;;3.80;3.50;;;;;;;;;;5095154;28;20522;-70
2021/12/28 12:44:09;;;;;;;6.73;3.60;;;;;;;;;;5094951;28;20479;-70
2021/12/28 12:46:38;;;;;;;4.90;3.57;;;;;;;;;;5094883;28;20442;-70
2021/12/28 12:49:14;;;;;;;6.43;3.70;;;;;;;;;;5094851;28;20443;-70
2021/12/28 12:51:46;;;;;;;7.13;3.63;;;;;;;;;;5095029;28;20514;-70
2021/12/28 12:54:19;;;;;;;3.33;3.03;;;;;;;;;;5094699;28;20428;-70
2021/12/28 12:56:58;;;;;;;3.40;3.10;;;;;;;;;;5095255;28;20809;-69
2021/12/28 12:59:27;;;;;;;3.40;3.13;;;;;;;;;;5094688;28;20621;-70
2021/12/28 13:01:59;;;;;;;4.57;4.17;;;;;;;;;;5094086;28;20563;-70
2021/12/28 13:04:41;;;;;;;4.57;4.20;;;;;;;;;;5094122;28;20534;-70
2021/12/28 13:07:11;;;;;;;5.53;4.87;;;;;;;;;;5091639;28;20479;-70
2021/12/28 13:09:40;;;;;;;5.00;4.00;;;;;;;;;;5094419;28;20784;-70
2021/12/28 13:12:07;;;;;;;8.27;4.23;;;;;;;;;;5094373;28;20854;-75
2021/12/28 13:14:35;;;;;;;4.97;3.75;;;;;;;;;;5094020;28;20542;-71
2021/12/28 13:17:03;;;;;;;5.33;3.90;;;;;;;;;;5094406;28;20300;-67
2021/12/28 13:19:30;;;;;;;4.47;3.70;;;;;;;;;;5094171;28;20479;-68
2021/12/28 13:21:59;;;;;;;3.67;3.37;;;;;;;;;;5094089;28;20510;-68
2021/12/28 13:24:28;;;;;;;3.67;3.37;;;;;;;;;;5093763;28;20467;-67
2021/12/28 13:26:57;;;;;;;3.40;3.08;;;;;;;;;;5093751;28;20486;-68
2021/12/28 13:29:25;;;;;;;5.33;4.13;;;;;;;;;;5093622;28;20197;-67
2021/12/28 13:31:52;;;;;;;3.90;3.60;;;;;;;;;;5094150;28;20576;-67
2021/12/28 13:34:20;;;;;;;3.90;3.60;;;;;;;;;;5093950;28;20535;-67
2021/12/28 13:36:50;;;;;;;6.23;3.63;;;;;;;;;;5092586;28;20526;-66
2021/12/28 13:39:17;;;;;;;4.57;3.27;;;;;;;;;;5093758;28;20435;-67
2021/12/28 13:41:51;;;;;;;3.80;3.53;;;;;;;;;;5093323;28;20514;-68
2021/12/28 13:44:20;;;;;;;3.83;3.53;;;;;;;;;;5094013;28;21013;-67
2021/12/28 13:46:52;;;;;;;4.67;3.70;;;;;;;;;;5093599;28;20496;-67
2021/12/28 13:49:37;;;;;;;3.90;3.60;;;;;;;;;;5093913;28;20428;-67
2021/12/28 13:52:10;;;;;;;4.00;3.70;;;;;;;;;;5092745;28;20530;-67
2021/12/28 13:54:41;;;;;;;5.60;4.50;;;;;;;;;;5094269;28;20420;-67
2021/12/28 13:57:18;;;;;;;6.27;5.63;;;;;;;;;;5093657;28;20432;-67
2021/12/28 13:59:45;;;;;;;4.97;4.00;;;;;;;;;;5093416;28;20427;-66
2021/12/28 14:02:16;;;;;;;7.13;5.00;;;;;;;;;;5093516;28;20509;-66
2021/12/28 14:04:46;;;;;;;11.70;4.30;;;;;;;;;;5093512;28;20229;-66
2021/12/28 14:07:14;;;;;;;7.27;3.60;;;;;;;;;;5093479;28;20453;-67
2021/12/28 14:09:42;;;;;;;6.17;4.00;;;;;;;;;;5093192;28;20448;-66
2021/12/28 14:12:17;;;;;;;9.67;2.60;;;;;;;;;;5093499;28;20589;-66
2021/12/28 14:14:48;;;;;;;6.23;3.23;;;;;;;;;;5093915;28;20510;-66
2021/12/28 14:20:01;;;;;;;5.50;3.47;;;;;;;;;;5091047;28;20442;-66
2021/12/28 14:22:30;;;;;;;11.20;4.60;;;;;;;;;;5094054;28;20470;-66
2021/12/28 14:24:58;;;;;;;13.20;3.40;;;;;;;;;;5093246;28;20288;-66
2021/12/28 14:27:28;;;;;;;6.10;2.70;;;;;;;;;;5092913;28;20480;-66
2021/12/28 14:30:03;;;;;;;14.57;4.30;;;;;;;;;;5093358;28;20451;-66
2021/12/28 14:32:35;;;;;;;9.17;3.33;;;;;;;;;;5093541;28;20438;-66
2021/12/28 14:35:04;;;;;;;18.73;8.40;;;;;;;;;;5093183;28;20435;-66
2021/12/28 14:37:35;;;;;;;10.20;3.70;;;;;;;;;;5092698;28;20518;-66
2021/12/28 14:40:12;;;;;;;13.17;4.37;;;;;;;;;;5092768;28;20216;-66
2021/12/28 14:42:41;;;;;;;14.63;4.20;;;;;;;;;;5097623;28;20855;-66
2021/12/28 14:45:12;;;;;;;9.77;4.57;;;;;;;;;;5096647;28;20486;-66
2021/12/28 14:47:40;;;;;;;13.50;5.50;;;;;;;;;;5096771;28;20488;-67